sensor_id;sensor_type;location;lat;lon;timestamp;P1;durP1;ratioP1;P2;durP2;ratioP2
37355;SDS011;48747;50.250;18.848;2023-04-25T04:30:55;5.65;;;3.45;;
37355;SDS011;48747;50.250;18.848;2023-04-25T04:53:14;8.95;;;4.47;;
37355;SDS011;48747;50.250;18.848;2023-04-25T05:26:44;6.47;;;4.17;;
37355;SDS011;48747;50.250;18.848;2023-04-25T06:47:56;7.72;;;5.30;;
37355;SDS011;48747;50.250;18.848;2023-04-25T06:52:42;8.20;;;5.17;;
37355;SDS011;48747;50.250;18.848;2023-04-25T06:57:58;10.68;;;6.10;;
37355;SDS011;48747;50.250;18.848;2023-04-25T07:00:38;9.95;;;5.28;;
37355;SDS011;48747;50.250;18.848;2023-04-25T07:02:20;9.53;;;5.37;;
37355;SDS011;48747;50.250;18.848;2023-04-25T08:03:58;9.78;;;5.72;;
37355;SDS011;48747;50.250;18.848;2023-04-25T11:59:25;6.30;;;3.52;;
37355;SDS011;48747;50.250;18.848;2023-04-25T12:12:20;8.00;;;4.08;;
37355;SDS011;48747;50.250;18.848;2023-04-25T12:22:59;8.18;;;4.10;;
37355;SDS011;48747;50.250;18.848;2023-04-25T12:25:04;6.70;;;3.58;;
37355;SDS011;48747;50.250;18.848;2023-04-25T12:27:21;5.30;;;3.58;;
37355;SDS011;48747;50.250;18.848;2023-04-25T12:48:25;5.70;;;3.45;;
37355;SDS011;48747;50.250;18.848;2023-04-25T13:02:12;6.40;;;3.67;;
37355;SDS011;48747;50.250;18.848;2023-04-25T13:06:48;8.40;;;4.33;;
37355;SDS011;48747;50.250;18.848;2023-04-25T13:08:52;7.67;;;4.40;;
37355;SDS011;48747;50.250;18.848;2023-04-25T13:16:06;7.03;;;4.10;;
37355;SDS011;48747;50.250;18.848;2023-04-25T13:20:22;10.93;;;4.30;;
37355;SDS011;48747;50.250;18.848;2023-04-25T13:22:27;7.55;;;3.92;;
37355;SDS011;48747;50.250;18.848;2023-04-25T13:24:30;8.65;;;3.65;;
37355;SDS011;48747;50.250;18.848;2023-04-25T13:26:34;6.10;;;3.33;;
37355;SDS011;48747;50.250;18.848;2023-04-25T13:31:32;5.72;;;3.83;;
37355;SDS011;48747;50.250;18.848;2023-04-25T13:35:39;6.08;;;3.30;;
37355;SDS011;48747;50.250;18.848;2023-04-25T13:37:51;7.25;;;3.90;;
37355;SDS011;48747;50.250;18.848;2023-04-25T13:39:55;7.90;;;3.95;;
37355;SDS011;48747;50.250;18.848;2023-04-25T13:45:01;6.47;;;3.60;;
37355;SDS011;48747;50.250;18.848;2023-04-25T13:52:26;6.47;;;4.30;;
37355;SDS011;48747;50.250;18.848;2023-04-25T13:54:35;9.38;;;4.40;;
37355;SDS011;48747;50.250;18.848;2023-04-25T13:56:41;10.60;;;4.12;;
37355;SDS011;48747;50.250;18.848;2023-04-25T14:08:20;7.70;;;4.17;;
37355;SDS011;48747;50.250;18.848;2023-04-25T14:10:15;7.62;;;4.08;;
37355;SDS011;48747;50.250;18.848;2023-04-25T14:15:08;7.70;;;4.08;;
37355;SDS011;48747;50.250;18.848;2023-04-25T14:20:16;8.15;;;4.10;;
37355;SDS011;48747;50.250;18.848;2023-04-25T14:24:29;6.37;;;4.20;;
37355;SDS011;48747;50.250;18.848;2023-04-25T14:26:46;12.93;;;3.75;;
37355;SDS011;48747;50.250;18.848;2023-04-25T14:28:57;6.85;;;3.80;;
37355;SDS011;48747;50.250;18.848;2023-04-25T14:33:43;7.10;;;3.75;;
37355;SDS011;48747;50.250;18.848;2023-04-25T14:41:01;6.12;;;3.12;;
37355;SDS011;48747;50.250;18.848;2023-04-25T14:45:45;9.78;;;4.12;;
37355;SDS011;48747;50.250;18.848;2023-04-25T14:58:25;5.45;;;3.67;;
37355;SDS011;48747;50.250;18.848;2023-04-25T15:03:23;8.65;;;4.00;;
37355;SDS011;48747;50.250;18.848;2023-04-25T15:05:37;6.10;;;4.00;;
37355;SDS011;48747;50.250;18.848;2023-04-25T15:07:45;5.40;;;3.50;;
37355;SDS011;48747;50.250;18.848;2023-04-25T15:21:54;7.92;;;4.17;;
37355;SDS011;48747;50.250;18.848;2023-04-25T15:24:10;8.58;;;4.70;;
37355;SDS011;48747;50.250;18.848;2023-04-25T15:26:24;5.75;;;3.45;;
37355;SDS011;48747;50.250;18.848;2023-04-25T15:36:27;5.40;;;3.17;;
37355;SDS011;48747;50.250;18.848;2023-04-25T15:43:18;7.83;;;3.20;;
37355;SDS011;48747;50.250;18.848;2023-04-25T15:45:07;6.83;;;3.55;;
37355;SDS011;48747;50.250;18.848;2023-04-25T15:47:15;5.20;;;3.60;;
37355;SDS011;48747;50.250;18.848;2023-04-25T15:49:28;6.62;;;3.58;;
37355;SDS011;48747;50.250;18.848;2023-04-25T15:51:42;5.45;;;3.40;;
37355;SDS011;48747;50.250;18.848;2023-04-25T15:54:07;5.80;;;3.95;;
37355;SDS011;48747;50.250;18.848;2023-04-25T15:55:58;6.30;;;3.45;;
37355;SDS011;48747;50.250;18.848;2023-04-25T15:58:03;6.55;;;3.50;;
37355;SDS011;48747;50.250;18.848;2023-04-25T16:00:10;8.00;;;3.77;;
37355;SDS011;48747;50.250;18.848;2023-04-25T16:02:16;7.92;;;3.70;;
37355;SDS011;48747;50.250;18.848;2023-04-25T16:04:23;7.70;;;3.77;;
37355;SDS011;48747;50.250;18.848;2023-04-25T16:06:31;9.95;;;3.55;;
37355;SDS011;48747;50.250;18.848;2023-04-25T16:08:38;6.80;;;3.60;;
37355;SDS011;48747;50.250;18.848;2023-04-25T16:10:47;9.20;;;4.25;;
37355;SDS011;48747;50.250;18.848;2023-04-25T16:12:47;12.68;;;6.45;;
37355;SDS011;48747;50.250;18.848;2023-04-25T16:14:51;11.10;;;5.03;;
37355;SDS011;48747;50.250;18.848;2023-04-25T16:16:59;9.20;;;4.30;;
37355;SDS011;48747;50.250;18.848;2023-04-25T16:19:05;7.10;;;3.98;;
37355;SDS011;48747;50.250;18.848;2023-04-25T16:21:09;6.42;;;2.70;;
37355;SDS011;48747;50.250;18.848;2023-04-25T16:23:14;6.90;;;3.17;;
37355;SDS011;48747;50.250;18.848;2023-04-25T16:25:18;6.25;;;3.70;;
37355;SDS011;48747;50.250;18.848;2023-04-25T16:27:22;7.58;;;2.95;;
37355;SDS011;48747;50.250;18.848;2023-04-25T16:29:27;9.25;;;4.45;;
37355;SDS011;48747;50.250;18.848;2023-04-25T16:31:30;6.87;;;3.35;;
37355;SDS011;48747;50.250;18.848;2023-04-25T16:33:34;8.28;;;4.47;;
37355;SDS011;48747;50.250;18.848;2023-04-25T16:35:38;7.65;;;4.75;;
37355;SDS011;48747;50.250;18.848;2023-04-25T16:37:47;7.62;;;3.35;;
37355;SDS011;48747;50.250;18.848;2023-04-25T16:39:51;8.28;;;3.85;;
37355;SDS011;48747;50.250;18.848;2023-04-25T16:42:00;7.45;;;3.30;;
37355;SDS011;48747;50.250;18.848;2023-04-25T16:44:02;9.23;;;3.50;;
37355;SDS011;48747;50.250;18.848;2023-04-25T16:46:09;7.75;;;4.25;;
37355;SDS011;48747;50.250;18.848;2023-04-25T16:48:13;101.78;;;41.45;;
37355;SDS011;48747;50.250;18.848;2023-04-25T16:50:22;23.62;;;11.03;;
37355;SDS011;48747;50.250;18.848;2023-04-25T16:52:32;8.65;;;3.95;;
37355;SDS011;48747;50.250;18.848;2023-04-25T16:54:31;5.33;;;2.85;;
37355;SDS011;48747;50.250;18.848;2023-04-25T16:56:36;12.35;;;5.28;;
37355;SDS011;48747;50.250;18.848;2023-04-25T16:58:39;5.92;;;3.10;;
37355;SDS011;48747;50.250;18.848;2023-04-25T17:00:43;6.03;;;3.35;;
37355;SDS011;48747;50.250;18.848;2023-04-25T17:02:47;8.50;;;3.50;;
37355;SDS011;48747;50.250;18.848;2023-04-25T17:04:51;10.55;;;5.22;;
37355;SDS011;48747;50.250;18.848;2023-04-25T17:06:54;9.40;;;4.30;;
37355;SDS011;48747;50.250;18.848;2023-04-25T17:09:04;14.60;;;4.60;;
37355;SDS011;48747;50.250;18.848;2023-04-25T17:11:03;5.20;;;2.58;;
37355;SDS011;48747;50.250;18.848;2023-04-25T17:13:12;7.58;;;3.62;;
37355;SDS011;48747;50.250;18.848;2023-04-25T17:15:11;6.78;;;3.08;;
37355;SDS011;48747;50.250;18.848;2023-04-25T17:17:16;5.17;;;2.90;;
37355;SDS011;48747;50.250;18.848;2023-04-25T17:19:27;9.95;;;3.10;;
37355;SDS011;48747;50.250;18.848;2023-04-25T17:21:43;7.35;;;4.10;;
37355;SDS011;48747;50.250;18.848;2023-04-25T17:23:33;10.30;;;5.53;;
37355;SDS011;48747;50.250;18.848;2023-04-25T17:25:38;9.53;;;4.30;;
37355;SDS011;48747;50.250;18.848;2023-04-25T17:27:41;8.53;;;4.33;;
37355;SDS011;48747;50.250;18.848;2023-04-25T17:29:44;26.80;;;14.83;;
37355;SDS011;48747;50.250;18.848;2023-04-25T17:32:04;31.75;;;13.83;;
37355;SDS011;48747;50.250;18.848;2023-04-25T17:33:58;39.67;;;13.48;;
37355;SDS011;48747;50.250;18.848;2023-04-25T17:36:01;16.20;;;6.55;;
37355;SDS011;48747;50.250;18.848;2023-04-25T17:38:05;15.35;;;5.95;;
37355;SDS011;48747;50.250;18.848;2023-04-25T17:40:09;10.60;;;4.80;;
37355;SDS011;48747;50.250;18.848;2023-04-25T17:42:12;10.98;;;4.60;;
37355;SDS011;48747;50.250;18.848;2023-04-25T17:44:15;9.98;;;4.72;;
37355;SDS011;48747;50.250;18.848;2023-04-25T17:46:22;15.32;;;6.67;;
37355;SDS011;48747;50.250;18.848;2023-04-25T17:48:24;11.60;;;5.80;;
37355;SDS011;48747;50.250;18.848;2023-04-25T17:50:29;26.50;;;10.58;;
37355;SDS011;48747;50.250;18.848;2023-04-25T17:52:32;23.30;;;10.23;;
37355;SDS011;48747;50.250;18.848;2023-04-25T17:54:36;45.67;;;17.85;;
37355;SDS011;48747;50.250;18.848;2023-04-25T17:56:41;58.28;;;30.57;;
37355;SDS011;48747;50.250;18.848;2023-04-25T17:58:45;42.93;;;19.02;;
37355;SDS011;48747;50.250;18.848;2023-04-25T18:00:51;47.03;;;19.90;;
37355;SDS011;48747;50.250;18.848;2023-04-25T18:02:59;89.45;;;40.28;;
37355;SDS011;48747;50.250;18.848;2023-04-25T18:05:03;22.85;;;11.00;;
37355;SDS011;48747;50.250;18.848;2023-04-25T18:07:13;20.97;;;9.90;;
37355;SDS011;48747;50.250;18.848;2023-04-25T18:09:16;15.75;;;6.72;;
37355;SDS011;48747;50.250;18.848;2023-04-25T18:11:26;14.95;;;7.25;;
37355;SDS011;48747;50.250;18.848;2023-04-25T18:13:29;16.12;;;7.85;;
37355;SDS011;48747;50.250;18.848;2023-04-25T18:17:57;15.58;;;7.17;;
37355;SDS011;48747;50.250;18.848;2023-04-25T18:22:14;16.97;;;8.03;;
37355;SDS011;48747;50.250;18.848;2023-04-25T18:26:39;17.05;;;7.90;;
37355;SDS011;48747;50.250;18.848;2023-04-25T18:28:45;17.90;;;9.60;;
37355;SDS011;48747;50.250;18.848;2023-04-25T18:30:50;25.95;;;10.18;;
37355;SDS011;48747;50.250;18.848;2023-04-25T18:35:03;22.00;;;11.78;;
37355;SDS011;48747;50.250;18.848;2023-04-25T18:37:12;32.35;;;13.38;;
37355;SDS011;48747;50.250;18.848;2023-04-25T18:39:16;69.03;;;22.35;;
37355;SDS011;48747;50.250;18.848;2023-04-25T18:41:25;59.42;;;21.33;;
37355;SDS011;48747;50.250;18.848;2023-04-25T18:43:28;67.00;;;22.15;;
37355;SDS011;48747;50.250;18.848;2023-04-25T18:45:46;78.12;;;24.98;;
37355;SDS011;48747;50.250;18.848;2023-04-25T18:47:38;86.08;;;27.10;;
37355;SDS011;48747;50.250;18.848;2023-04-25T18:49:45;105.40;;;34.60;;
37355;SDS011;48747;50.250;18.848;2023-04-25T18:51:48;106.45;;;34.45;;
37355;SDS011;48747;50.250;18.848;2023-04-25T18:54:13;100.95;;;37.45;;
37355;SDS011;48747;50.250;18.848;2023-04-25T18:55:59;126.55;;;38.95;;
37355;SDS011;48747;50.250;18.848;2023-04-25T18:58:11;106.80;;;34.90;;
37355;SDS011;48747;50.250;18.848;2023-04-25T19:00:18;65.57;;;25.15;;
37355;SDS011;48747;50.250;18.848;2023-04-25T19:04:33;41.77;;;15.58;;
37355;SDS011;48747;50.250;18.848;2023-04-25T19:06:36;61.48;;;21.35;;
37355;SDS011;48747;50.250;18.848;2023-04-25T19:08:39;65.57;;;21.95;;
37355;SDS011;48747;50.250;18.848;2023-04-25T19:10:45;60.23;;;25.62;;
37355;SDS011;48747;50.250;18.848;2023-04-25T19:12:49;51.50;;;18.90;;
37355;SDS011;48747;50.250;18.848;2023-04-25T19:14:55;61.40;;;22.52;;
37355;SDS011;48747;50.250;18.848;2023-04-25T19:16:58;69.07;;;23.95;;
37355;SDS011;48747;50.250;18.848;2023-04-25T19:19:01;75.30;;;24.43;;
37355;SDS011;48747;50.250;18.848;2023-04-25T19:21:04;80.22;;;28.62;;
37355;SDS011;48747;50.250;18.848;2023-04-25T19:23:09;42.20;;;18.35;;
37355;SDS011;48747;50.250;18.848;2023-04-25T19:25:12;48.15;;;19.45;;
37355;SDS011;48747;50.250;18.848;2023-04-25T19:27:15;53.17;;;20.32;;
37355;SDS011;48747;50.250;18.848;2023-04-25T19:29:18;50.98;;;19.20;;
37355;SDS011;48747;50.250;18.848;2023-04-25T19:31:33;37.30;;;16.85;;
37355;SDS011;48747;50.250;18.848;2023-04-25T19:33:34;30.48;;;14.65;;
37355;SDS011;48747;50.250;18.848;2023-04-25T19:35:37;36.88;;;18.12;;
37355;SDS011;48747;50.250;18.848;2023-04-25T19:37:41;21.85;;;9.83;;
37355;SDS011;48747;50.250;18.848;2023-04-25T19:39:52;26.85;;;11.70;;
37355;SDS011;48747;50.250;18.848;2023-04-25T19:41:52;25.25;;;10.05;;
37355;SDS011;48747;50.250;18.848;2023-04-25T19:43:57;21.97;;;9.80;;
37355;SDS011;48747;50.250;18.848;2023-04-25T19:46:05;26.15;;;11.00;;
37355;SDS011;48747;50.250;18.848;2023-04-25T19:48:09;21.02;;;9.68;;
37355;SDS011;48747;50.250;18.848;2023-04-25T19:50:14;17.85;;;8.08;;
37355;SDS011;48747;50.250;18.848;2023-04-25T19:52:20;22.10;;;8.58;;
37355;SDS011;48747;50.250;18.848;2023-04-25T19:54:23;11.90;;;6.55;;
37355;SDS011;48747;50.250;18.848;2023-04-25T19:56:26;18.45;;;7.65;;
37355;SDS011;48747;50.250;18.848;2023-04-25T19:58:30;15.30;;;6.70;;
37355;SDS011;48747;50.250;18.848;2023-04-25T20:00:33;12.60;;;5.87;;
37355;SDS011;48747;50.250;18.848;2023-04-25T20:04:57;17.65;;;6.70;;
37355;SDS011;48747;50.250;18.848;2023-04-25T20:06:50;10.23;;;5.37;;
37355;SDS011;48747;50.250;18.848;2023-04-25T20:09:02;12.53;;;4.78;;
37355;SDS011;48747;50.250;18.848;2023-04-25T20:11:00;12.50;;;6.00;;
37355;SDS011;48747;50.250;18.848;2023-04-25T20:13:04;9.38;;;4.62;;
37355;SDS011;48747;50.250;18.848;2023-04-25T20:15:07;13.35;;;6.12;;
37355;SDS011;48747;50.250;18.848;2023-04-25T20:17:13;17.10;;;9.43;;
37355;SDS011;48747;50.250;18.848;2023-04-25T20:19:16;11.60;;;5.30;;
37355;SDS011;48747;50.250;18.848;2023-04-25T20:21:21;18.87;;;7.55;;
37355;SDS011;48747;50.250;18.848;2023-04-25T20:23:26;18.67;;;7.15;;
37355;SDS011;48747;50.250;18.848;2023-04-25T20:25:29;18.73;;;7.75;;
37355;SDS011;48747;50.250;18.848;2023-04-25T20:27:32;31.87;;;19.45;;
37355;SDS011;48747;50.250;18.848;2023-04-25T20:29:37;14.43;;;5.70;;
37355;SDS011;48747;50.250;18.848;2023-04-25T20:31:43;26.07;;;15.70;;
37355;SDS011;48747;50.250;18.848;2023-04-25T20:33:52;18.87;;;9.43;;
37355;SDS011;48747;50.250;18.848;2023-04-25T20:36:00;14.65;;;6.85;;
37355;SDS011;48747;50.250;18.848;2023-04-25T20:38:03;13.05;;;7.42;;
37355;SDS011;48747;50.250;18.848;2023-04-25T20:40:06;12.75;;;8.25;;
37355;SDS011;48747;50.250;18.848;2023-04-25T20:42:10;13.28;;;5.22;;
37355;SDS011;48747;50.250;18.848;2023-04-25T20:44:13;19.37;;;12.23;;
37355;SDS011;48747;50.250;18.848;2023-04-25T20:46:17;14.98;;;6.78;;
37355;SDS011;48747;50.250;18.848;2023-04-25T20:48:21;8.60;;;4.70;;
37355;SDS011;48747;50.250;18.848;2023-04-25T20:50:24;12.03;;;5.72;;
37355;SDS011;48747;50.250;18.848;2023-04-25T20:52:31;11.95;;;4.95;;
37355;SDS011;48747;50.250;18.848;2023-04-25T20:54:34;9.13;;;4.80;;
37355;SDS011;48747;50.250;18.848;2023-04-25T20:56:37;12.07;;;5.90;;
37355;SDS011;48747;50.250;18.848;2023-04-25T20:58:43;9.25;;;6.10;;
37355;SDS011;48747;50.250;18.848;2023-04-25T21:00:45;9.43;;;4.78;;
37355;SDS011;48747;50.250;18.848;2023-04-25T21:02:49;11.03;;;5.12;;
37355;SDS011;48747;50.250;18.848;2023-04-25T21:04:52;12.33;;;5.53;;
37355;SDS011;48747;50.250;18.848;2023-04-25T21:07:01;8.28;;;5.08;;
37355;SDS011;48747;50.250;18.848;2023-04-25T21:09:01;11.95;;;5.58;;
37355;SDS011;48747;50.250;18.848;2023-04-25T21:11:05;14.80;;;6.62;;
37355;SDS011;48747;50.250;18.848;2023-04-25T21:13:09;10.45;;;5.33;;
37355;SDS011;48747;50.250;18.848;2023-04-25T21:15:13;14.58;;;6.45;;
37355;SDS011;48747;50.250;18.848;2023-04-25T21:17:18;13.55;;;6.00;;
37355;SDS011;48747;50.250;18.848;2023-04-25T21:19:21;13.22;;;5.50;;
37355;SDS011;48747;50.250;18.848;2023-04-25T21:21:25;8.60;;;4.97;;
37355;SDS011;48747;50.250;18.848;2023-04-25T21:23:28;12.50;;;4.83;;
37355;SDS011;48747;50.250;18.848;2023-04-25T21:25:32;9.78;;;4.53;;
37355;SDS011;48747;50.250;18.848;2023-04-25T21:27:36;11.68;;;4.35;;
37355;SDS011;48747;50.250;18.848;2023-04-25T21:29:39;10.28;;;3.98;;
37355;SDS011;48747;50.250;18.848;2023-04-25T21:31:43;11.80;;;4.50;;
37355;SDS011;48747;50.250;18.848;2023-04-25T21:33:46;16.90;;;5.50;;
37355;SDS011;48747;50.250;18.848;2023-04-25T21:35:52;8.75;;;4.60;;
37355;SDS011;48747;50.250;18.848;2023-04-25T21:37:54;13.58;;;4.72;;
37355;SDS011;48747;50.250;18.848;2023-04-25T21:39:57;12.33;;;5.22;;
37355;SDS011;48747;50.250;18.848;2023-04-25T21:42:00;13.22;;;4.90;;
37355;SDS011;48747;50.250;18.848;2023-04-25T21:44:10;13.35;;;4.75;;
37355;SDS011;48747;50.250;18.848;2023-04-25T21:46:11;12.15;;;5.37;;
37355;SDS011;48747;50.250;18.848;2023-04-25T21:48:14;12.85;;;6.12;;
37355;SDS011;48747;50.250;18.848;2023-04-25T21:50:18;14.60;;;5.53;;
37355;SDS011;48747;50.250;18.848;2023-04-25T21:52:22;16.20;;;5.72;;
37355;SDS011;48747;50.250;18.848;2023-04-25T21:54:26;12.75;;;5.50;;
37355;SDS011;48747;50.250;18.848;2023-04-25T21:56:31;16.45;;;5.17;;
37355;SDS011;48747;50.250;18.848;2023-04-25T21:58:36;14.83;;;5.05;;
37355;SDS011;48747;50.250;18.848;2023-04-25T22:00:40;18.35;;;5.40;;
37355;SDS011;48747;50.250;18.848;2023-04-25T22:02:48;13.10;;;4.50;;
37355;SDS011;48747;50.250;18.848;2023-04-25T22:04:53;12.78;;;5.47;;
37355;SDS011;48747;50.250;18.848;2023-04-25T22:06:56;12.95;;;5.22;;
37355;SDS011;48747;50.250;18.848;2023-04-25T22:08:59;20.17;;;6.78;;
37355;SDS011;48747;50.250;18.848;2023-04-25T22:11:08;18.37;;;6.12;;
37355;SDS011;48747;50.250;18.848;2023-04-25T22:13:10;10.63;;;5.70;;
37355;SDS011;48747;50.250;18.848;2023-04-25T22:15:13;11.30;;;4.95;;
37355;SDS011;48747;50.250;18.848;2023-04-25T22:17:18;12.82;;;5.50;;
37355;SDS011;48747;50.250;18.848;2023-04-25T22:19:23;13.00;;;4.50;;
37355;SDS011;48747;50.250;18.848;2023-04-25T22:21:26;11.25;;;4.95;;
37355;SDS011;48747;50.250;18.848;2023-04-25T22:23:29;15.90;;;4.72;;
37355;SDS011;48747;50.250;18.848;2023-04-25T22:25:32;10.93;;;4.30;;
37355;SDS011;48747;50.250;18.848;2023-04-25T22:27:35;12.40;;;4.62;;
37355;SDS011;48747;50.250;18.848;2023-04-25T22:29:40;11.55;;;4.05;;
37355;SDS011;48747;50.250;18.848;2023-04-25T22:31:46;13.70;;;4.72;;
37355;SDS011;48747;50.250;18.848;2023-04-25T22:33:49;14.25;;;4.45;;
37355;SDS011;48747;50.250;18.848;2023-04-25T22:35:52;12.45;;;4.67;;
37355;SDS011;48747;50.250;18.848;2023-04-25T22:37:55;14.53;;;5.15;;
37355;SDS011;48747;50.250;18.848;2023-04-25T22:40:00;10.32;;;4.60;;
37355;SDS011;48747;50.250;18.848;2023-04-25T22:42:05;12.95;;;4.60;;
37355;SDS011;48747;50.250;18.848;2023-04-25T22:44:08;10.03;;;4.12;;
37355;SDS011;48747;50.250;18.848;2023-04-25T22:46:16;14.05;;;5.72;;
37355;SDS011;48747;50.250;18.848;2023-04-25T22:48:20;11.43;;;5.15;;
37355;SDS011;48747;50.250;18.848;2023-04-25T22:50:28;10.10;;;5.15;;
37355;SDS011;48747;50.250;18.848;2023-04-25T22:52:29;11.85;;;4.80;;
37355;SDS011;48747;50.250;18.848;2023-04-25T22:54:34;12.78;;;5.62;;
37355;SDS011;48747;50.250;18.848;2023-04-25T22:56:39;11.50;;;4.55;;
37355;SDS011;48747;50.250;18.848;2023-04-25T22:58:42;10.45;;;4.47;;
37355;SDS011;48747;50.250;18.848;2023-04-25T23:00:45;14.13;;;4.97;;
37355;SDS011;48747;50.250;18.848;2023-04-25T23:02:48;13.15;;;4.55;;
37355;SDS011;48747;50.250;18.848;2023-04-25T23:04:59;11.88;;;4.50;;
37355;SDS011;48747;50.250;18.848;2023-04-25T23:06:58;12.45;;;4.47;;
37355;SDS011;48747;50.250;18.848;2023-04-25T23:09:01;10.60;;;4.45;;
37355;SDS011;48747;50.250;18.848;2023-04-25T23:11:07;10.88;;;4.42;;
37355;SDS011;48747;50.250;18.848;2023-04-25T23:13:11;10.32;;;4.60;;
37355;SDS011;48747;50.250;18.848;2023-04-25T23:15:14;12.55;;;4.92;;
37355;SDS011;48747;50.250;18.848;2023-04-25T23:17:20;10.30;;;4.20;;
37355;SDS011;48747;50.250;18.848;2023-04-25T23:19:23;13.72;;;4.42;;
37355;SDS011;48747;50.250;18.848;2023-04-25T23:21:26;9.33;;;4.00;;
37355;SDS011;48747;50.250;18.848;2023-04-25T23:23:29;11.68;;;4.70;;
37355;SDS011;48747;50.250;18.848;2023-04-25T23:25:35;16.17;;;5.15;;
37355;SDS011;48747;50.250;18.848;2023-04-25T23:27:40;12.28;;;4.72;;
37355;SDS011;48747;50.250;18.848;2023-04-25T23:29:49;11.65;;;5.08;;
37355;SDS011;48747;50.250;18.848;2023-04-25T23:31:54;13.65;;;5.85;;
37355;SDS011;48747;50.250;18.848;2023-04-25T23:33:58;19.17;;;4.40;;
37355;SDS011;48747;50.250;18.848;2023-04-25T23:36:01;14.13;;;4.22;;
37355;SDS011;48747;50.250;18.848;2023-04-25T23:38:04;12.00;;;5.05;;
37355;SDS011;48747;50.250;18.848;2023-04-25T23:40:07;10.32;;;4.20;;
37355;SDS011;48747;50.250;18.848;2023-04-25T23:42:12;10.85;;;4.50;;
37355;SDS011;48747;50.250;18.848;2023-04-25T23:44:15;17.55;;;4.80;;
37355;SDS011;48747;50.250;18.848;2023-04-25T23:46:18;14.95;;;4.58;;
37355;SDS011;48747;50.250;18.848;2023-04-25T23:48:22;9.28;;;4.28;;
37355;SDS011;48747;50.250;18.848;2023-04-25T23:50:27;12.95;;;4.90;;
37355;SDS011;48747;50.250;18.848;2023-04-25T23:52:31;10.85;;;4.30;;
37355;SDS011;48747;50.250;18.848;2023-04-25T23:54:34;12.73;;;4.60;;
37355;SDS011;48747;50.250;18.848;2023-04-25T23:56:37;12.18;;;4.50;;
37355;SDS011;48747;50.250;18.848;2023-04-25T23:58:40;10.50;;;4.62;;
